Time;durP1;ratioP1;P1;durP2;ratioP2;P2;SDS_P1;SDS_P2;PMS_P1;PMS_P2;Temp;Humidity;BMP_temperature;BMP_pressure;BME280_temperature;BME280_humidity;BME280_pressure;Samples;Min_cycle;Max_cycle;Signal;HPM_P1;HPM_P2
2021/04/26 00:02:22;;;;;;;17.45;4.32;;;;;;;;;;5091963;28;20051;-69
2021/04/26 00:04:49;;;;;;;7.15;3.80;;;;;;;;;;5092396;28;20084;-70
2021/04/26 00:07:17;;;;;;;9.18;4.10;;;;;;;;;;5091971;28;20082;-70
2021/04/26 00:09:45;;;;;;;7.38;4.50;;;;;;;;;;5092488;28;20550;-69
2021/04/26 00:12:12;;;;;;;7.72;4.30;;;;;;;;;;5093133;28;20299;-72
2021/04/26 00:14:44;;;;;;;9.57;4.00;;;;;;;;;;5090332;28;20051;-70
2021/04/26 00:17:11;;;;;;;7.60;4.22;;;;;;;;;;5088278;28;20443;-70
2021/04/26 00:19:39;;;;;;;9.02;4.50;;;;;;;;;;5092600;28;20040;-71
2021/04/26 00:22:06;;;;;;;7.43;4.43;;;;;;;;;;5093080;28;20166;-69
2021/04/26 00:24:34;;;;;;;7.97;4.20;;;;;;;;;;5091564;28;20437;-69
2021/04/26 00:27:02;;;;;;;7.72;4.22;;;;;;;;;;5087787;28;20423;-69
2021/04/26 00:29:29;;;;;;;7.18;4.13;;;;;;;;;;5087474;28;20048;-69
2021/04/26 00:31:56;;;;;;;8.25;4.38;;;;;;;;;;5092086;28;20051;-69
2021/04/26 00:34:24;;;;;;;9.13;4.63;;;;;;;;;;5092581;28;20127;-70
2021/04/26 00:36:51;;;;;;;9.13;4.10;;;;;;;;;;5092729;28;20141;-69
2021/04/26 00:39:18;;;;;;;10.57;4.55;;;;;;;;;;5092668;28;20103;-69
2021/04/26 00:41:47;;;;;;;10.18;4.13;;;;;;;;;;5092680;28;20091;-69
2021/04/26 00:44:14;;;;;;;7.90;3.92;;;;;;;;;;5092480;28;20055;-70
2021/04/26 00:46:41;;;;;;;8.20;4.65;;;;;;;;;;5087938;28;20468;-69
2021/04/26 00:49:09;;;;;;;9.73;4.97;;;;;;;;;;5091762;28;20044;-73
2021/04/26 00:51:36;;;;;;;7.22;4.30;;;;;;;;;;5092560;28;20131;-70
2021/04/26 00:54:04;;;;;;;8.65;4.85;;;;;;;;;;5092627;28;20139;-69
2021/04/26 00:56:31;;;;;;;9.35;4.57;;;;;;;;;;5092582;28;20043;-69
2021/04/26 00:58:59;;;;;;;7.07;4.78;;;;;;;;;;5091441;28;20499;-69
2021/04/26 01:01:27;;;;;;;9.07;4.93;;;;;;;;;;5091935;28;20131;-68
2021/04/26 01:03:54;;;;;;;16.25;5.57;;;;;;;;;;5091606;28;20048;-70
2021/04/26 01:06:22;;;;;;;8.38;4.90;;;;;;;;;;5088268;28;20044;-70
2021/04/26 01:08:50;;;;;;;11.55;5.35;;;;;;;;;;5089998;28;20432;-69
2021/04/26 01:11:17;;;;;;;8.95;4.95;;;;;;;;;;5090778;28;20043;-69
2021/04/26 01:13:46;;;;;;;11.80;5.18;;;;;;;;;;5091227;28;20402;-69
2021/04/26 01:16:17;;;;;;;16.40;5.30;;;;;;;;;;5090519;28;20076;-73
2021/04/26 01:18:46;;;;;;;12.20;5.10;;;;;;;;;;5089833;28;20101;-69
2021/04/26 01:21:30;;;;;;;7.80;4.88;;;;;;;;;;5089800;28;20467;-69
2021/04/26 01:24:11;;;;;;;11.85;5.20;;;;;;;;;;5088424;28;20055;-71
2021/04/26 01:26:51;;;;;;;13.15;5.75;;;;;;;;;;5090125;28;20043;-71
2021/04/26 01:29:26;;;;;;;10.55;4.90;;;;;;;;;;5090682;28;20484;-69
2021/04/26 01:32:05;;;;;;;11.30;4.68;;;;;;;;;;5091113;28;20075;-69
2021/04/26 01:34:32;;;;;;;11.27;4.70;;;;;;;;;;5090058;28;20491;-70
2021/04/26 01:37:00;;;;;;;9.00;4.90;;;;;;;;;;5090035;28;20040;-69
2021/04/26 01:39:29;;;;;;;15.68;5.93;;;;;;;;;;5091256;28;20089;-69
2021/04/26 01:41:57;;;;;;;10.45;4.88;;;;;;;;;;5091537;28;20108;-70
2021/04/26 01:44:25;;;;;;;10.43;4.65;;;;;;;;;;5091041;28;20122;-70
2021/04/26 01:46:53;;;;;;;8.70;4.88;;;;;;;;;;5077080;28;20444;-74
2021/04/26 01:49:22;;;;;;;8.90;5.10;;;;;;;;;;5090100;28;20044;-69
2021/04/26 01:51:50;;;;;;;10.95;5.28;;;;;;;;;;5091142;28;20048;-71
2021/04/26 01:54:17;;;;;;;9.60;5.22;;;;;;;;;;5091583;28;20040;-69
2021/04/26 01:56:45;;;;;;;9.27;5.03;;;;;;;;;;5090509;28;20075;-69
2021/04/26 01:59:13;;;;;;;9.63;5.22;;;;;;;;;;5085366;28;20566;-71
2021/04/26 02:01:40;;;;;;;7.95;4.97;;;;;;;;;;5089977;28;20044;-69
2021/04/26 02:04:08;;;;;;;9.68;4.55;;;;;;;;;;5090336;28;20056;-69
2021/04/26 02:06:37;;;;;;;9.77;5.43;;;;;;;;;;5090683;28;20044;-71
2021/04/26 02:09:05;;;;;;;7.80;4.43;;;;;;;;;;5091538;28;20129;-71
2021/04/26 02:11:32;;;;;;;13.80;5.10;;;;;;;;;;5089530;28;20072;-69
2021/04/26 02:14:00;;;;;;;9.85;5.15;;;;;;;;;;5091384;28;20091;-70
2021/04/26 02:16:27;;;;;;;9.50;4.65;;;;;;;;;;5090254;28;20463;-72
2021/04/26 02:18:56;;;;;;;9.07;5.20;;;;;;;;;;5086876;28;20116;-71
2021/04/26 02:21:23;;;;;;;10.98;5.47;;;;;;;;;;5088850;28;20055;-69
2021/04/26 02:23:51;;;;;;;10.18;5.38;;;;;;;;;;5090161;28;20076;-69
2021/04/26 02:26:19;;;;;;;11.48;4.90;;;;;;;;;;5089815;28;20510;-69
2021/04/26 02:28:46;;;;;;;11.25;5.38;;;;;;;;;;5088305;28;20124;-69
2021/04/26 02:31:15;;;;;;;10.13;5.35;;;;;;;;;;5090026;28;20419;-70
2021/04/26 02:33:45;;;;;;;9.27;5.57;;;;;;;;;;5090243;28;20457;-69
2021/04/26 02:36:15;;;;;;;11.32;5.53;;;;;;;;;;5087424;28;20087;-69
2021/04/26 02:38:45;;;;;;;7.70;5.07;;;;;;;;;;5089778;28;20040;-69
2021/04/26 02:41:14;;;;;;;12.30;5.30;;;;;;;;;;5090272;28;20059;-69
2021/04/26 02:43:42;;;;;;;10.45;5.05;;;;;;;;;;5090491;28;20119;-69
2021/04/26 02:46:10;;;;;;;8.13;5.13;;;;;;;;;;5089691;28;20135;-70
2021/04/26 02:48:38;;;;;;;7.05;4.72;;;;;;;;;;5090057;28;20109;-69
2021/04/26 02:51:06;;;;;;;9.32;4.55;;;;;;;;;;5086108;28;20091;-70
2021/04/26 02:53:34;;;;;;;7.97;4.75;;;;;;;;;;5089408;28;20526;-69
2021/04/26 02:56:04;;;;;;;12.43;5.43;;;;;;;;;;5090605;28;20106;-69
2021/04/26 02:58:33;;;;;;;9.20;4.85;;;;;;;;;;5089309;28;20122;-69
2021/04/26 03:01:01;;;;;;;13.68;5.45;;;;;;;;;;5081453;28;20075;-69
2021/04/26 03:03:31;;;;;;;10.85;5.60;;;;;;;;;;5089590;28;20523;-69
2021/04/26 03:05:59;;;;;;;8.73;5.07;;;;;;;;;;5087521;28;20074;-68
2021/04/26 03:08:26;;;;;;;10.13;5.35;;;;;;;;;;5088403;28;20138;-68
2021/04/26 03:10:53;;;;;;;8.85;4.75;;;;;;;;;;5090292;28;20052;-71
2021/04/26 03:13:22;;;;;;;9.95;4.95;;;;;;;;;;5089517;28;20048;-69
2021/04/26 03:15:50;;;;;;;8.07;4.68;;;;;;;;;;5089312;28;20076;-68
2021/04/26 03:18:17;;;;;;;8.27;4.80;;;;;;;;;;5088265;28;20498;-68
2021/04/26 03:20:45;;;;;;;8.32;5.10;;;;;;;;;;5085556;28;20128;-69
2021/04/26 03:23:15;;;;;;;11.15;5.07;;;;;;;;;;5090500;28;20056;-68
2021/04/26 03:25:42;;;;;;;11.50;4.85;;;;;;;;;;5090602;28;20132;-68
2021/04/26 03:28:11;;;;;;;8.77;4.97;;;;;;;;;;5092810;28;20064;-68
2021/04/26 03:30:39;;;;;;;10.88;4.93;;;;;;;;;;5093834;28;20040;-72
2021/04/26 03:33:07;;;;;;;11.43;5.10;;;;;;;;;;5092991;28;20159;-69
2021/04/26 03:35:35;;;;;;;11.73;5.00;;;;;;;;;;5092965;28;20073;-69
2021/04/26 03:38:03;;;;;;;8.43;4.97;;;;;;;;;;5092122;28;20101;-69
2021/04/26 03:40:30;;;;;;;10.32;5.13;;;;;;;;;;5093201;28;20040;-70
2021/04/26 03:42:59;;;;;;;9.18;5.22;;;;;;;;;;5092555;28;20099;-69
2021/04/26 03:45:27;;;;;;;12.55;5.43;;;;;;;;;;5094430;28;20430;-69
2021/04/26 03:47:55;;;;;;;9.15;5.25;;;;;;;;;;5093454;28;20484;-70
2021/04/26 03:50:24;;;;;;;9.07;5.40;;;;;;;;;;5091683;28;20044;-72
2021/04/26 03:52:52;;;;;;;8.05;5.22;;;;;;;;;;5087415;28;20040;-69
2021/04/26 03:55:21;;;;;;;10.93;5.10;;;;;;;;;;5092191;28;20465;-69
2021/04/26 03:57:48;;;;;;;8.38;5.22;;;;;;;;;;5092211;28;20104;-69
2021/04/26 04:00:17;;;;;;;11.45;5.70;;;;;;;;;;5085431;28;20053;-69
2021/04/26 04:02:45;;;;;;;7.97;4.70;;;;;;;;;;5091220;28;20578;-69
2021/04/26 04:05:14;;;;;;;8.48;5.32;;;;;;;;;;5088712;28;20095;-68
2021/04/26 04:07:42;;;;;;;12.32;5.35;;;;;;;;;;5092160;28;20123;-68
2021/04/26 04:10:11;;;;;;;10.40;5.65;;;;;;;;;;5094062;28;20120;-69
2021/04/26 04:12:39;;;;;;;8.88;5.35;;;;;;;;;;5093305;28;20094;-68
2021/04/26 04:15:07;;;;;;;12.13;6.22;;;;;;;;;;5092768;28;20114;-70
2021/04/26 04:17:34;;;;;;;9.32;5.75;;;;;;;;;;5092880;28;20089;-69
2021/04/26 04:20:06;;;;;;;10.95;5.50;;;;;;;;;;5093024;28;20062;-70
2021/04/26 04:22:33;;;;;;;11.75;5.53;;;;;;;;;;5083377;28;20075;-69
2021/04/26 04:25:02;;;;;;;13.90;5.75;;;;;;;;;;5093025;28;20131;-68
2021/04/26 04:27:30;;;;;;;13.50;6.32;;;;;;;;;;5090084;28;20043;-69
2021/04/26 04:29:58;;;;;;;11.45;5.97;;;;;;;;;;5092336;28;20048;-69
2021/04/26 04:32:25;;;;;;;14.43;5.45;;;;;;;;;;5091622;28;20048;-69
2021/04/26 04:34:53;;;;;;;10.90;5.70;;;;;;;;;;5092151;28;20403;-68
2021/04/26 04:37:20;;;;;;;13.48;5.50;;;;;;;;;;5091874;28;20169;-69
2021/04/26 04:39:47;;;;;;;14.77;5.47;;;;;;;;;;5092230;28;20560;-69
2021/04/26 04:42:16;;;;;;;11.10;6.00;;;;;;;;;;5092247;28;20091;-69
2021/04/26 04:44:43;;;;;;;13.43;5.78;;;;;;;;;;5092047;28;20068;-71
2021/04/26 04:47:10;;;;;;;15.27;6.97;;;;;;;;;;5092478;28;20070;-69
2021/04/26 04:49:38;;;;;;;14.85;7.00;;;;;;;;;;5093169;28;20419;-69
2021/04/26 04:52:05;;;;;;;12.45;6.20;;;;;;;;;;5089354;28;20048;-69
2021/04/26 04:54:34;;;;;;;17.90;6.82;;;;;;;;;;5094227;28;20052;-70
2021/04/26 04:57:02;;;;;;;13.05;6.28;;;;;;;;;;5089059;28;20051;-70
2021/04/26 04:59:30;;;;;;;14.15;6.28;;;;;;;;;;5092108;28;20071;-68
2021/04/26 05:01:57;;;;;;;12.02;5.82;;;;;;;;;;5090212;28;20075;-68
2021/04/26 05:04:25;;;;;;;14.13;6.63;;;;;;;;;;5089368;28;20113;-69
2021/04/26 05:06:54;;;;;;;11.45;6.00;;;;;;;;;;5088733;28;20075;-68
2021/04/26 05:09:21;;;;;;;12.73;6.32;;;;;;;;;;5092189;28;20063;-68
2021/04/26 05:11:49;;;;;;;11.93;5.65;;;;;;;;;;5092125;28;20048;-68
2021/04/26 05:14:16;;;;;;;14.48;6.35;;;;;;;;;;5093572;28;20051;-70
2021/04/26 05:16:44;;;;;;;10.20;6.00;;;;;;;;;;5095225;28;20455;-69
2021/04/26 05:19:12;;;;;;;10.73;5.97;;;;;;;;;;5092762;28;20105;-70
2021/04/26 05:21:42;;;;;;;9.93;5.97;;;;;;;;;;5087542;28;20126;-70
2021/04/26 05:24:09;;;;;;;12.80;6.70;;;;;;;;;;5085253;28;20134;-72
2021/04/26 05:26:37;;;;;;;15.65;7.90;;;;;;;;;;5088581;28;20063;-69
2021/04/26 05:29:04;;;;;;;16.67;7.28;;;;;;;;;;5091083;28;20052;-70
2021/04/26 05:31:32;;;;;;;12.98;5.97;;;;;;;;;;5089625;28;20454;-69
2021/04/26 05:34:00;;;;;;;14.90;6.13;;;;;;;;;;5090674;28;20352;-68
2021/04/26 05:36:27;;;;;;;11.70;6.25;;;;;;;;;;5092726;28;20119;-70
2021/04/26 05:38:55;;;;;;;12.77;6.05;;;;;;;;;;5091802;28;20079;-68
2021/04/26 05:41:22;;;;;;;13.63;6.18;;;;;;;;;;5092576;28;20080;-69
2021/04/26 05:43:50;;;;;;;10.73;5.78;;;;;;;;;;5092777;28;20079;-68
2021/04/26 05:46:18;;;;;;;11.95;5.68;;;;;;;;;;5091886;28;20121;-68
2021/04/26 05:48:45;;;;;;;10.57;5.97;;;;;;;;;;5092031;28;20052;-69
2021/04/26 05:51:13;;;;;;;11.10;6.10;;;;;;;;;;5092187;28;20128;-68
2021/04/26 05:53:41;;;;;;;13.55;6.00;;;;;;;;;;5092723;28;20044;-71
2021/04/26 05:56:09;;;;;;;15.02;6.25;;;;;;;;;;5093107;28;20052;-68
2021/04/26 05:58:36;;;;;;;9.80;5.13;;;;;;;;;;5091752;28;20449;-70
2021/04/26 06:01:04;;;;;;;10.48;6.32;;;;;;;;;;5088861;28;20089;-68
2021/04/26 06:03:32;;;;;;;11.60;5.50;;;;;;;;;;5091124;28;20097;-69
2021/04/26 06:05:59;;;;;;;12.38;5.90;;;;;;;;;;5090073;28;20096;-68
2021/04/26 06:08:29;;;;;;;15.32;5.25;;;;;;;;;;5088140;28;20043;-72
2021/04/26 06:10:56;;;;;;;13.18;6.13;;;;;;;;;;5084398;28;20515;-69
2021/04/26 06:13:24;;;;;;;9.15;5.50;;;;;;;;;;5087274;28;20560;-68
2021/04/26 06:15:52;;;;;;;11.90;5.75;;;;;;;;;;5086853;28;20587;-73
2021/04/26 06:18:21;;;;;;;7.72;4.68;;;;;;;;;;5084988;28;20040;-72
2021/04/26 06:20:49;;;;;;;11.38;6.20;;;;;;;;;;5086897;28;20048;-74
2021/04/26 06:23:18;;;;;;;11.43;6.35;;;;;;;;;;5089128;28;20047;-69
2021/04/26 06:25:48;;;;;;;9.18;5.18;;;;;;;;;;5087595;28;20071;-69
2021/04/26 06:28:16;;;;;;;8.45;5.90;;;;;;;;;;5066015;28;20053;-70
2021/04/26 06:30:45;;;;;;;14.40;6.22;;;;;;;;;;5082313;28;20101;-69
2021/04/26 06:33:16;;;;;;;11.43;5.85;;;;;;;;;;5091410;28;20132;-69
2021/04/26 06:35:45;;;;;;;10.75;5.47;;;;;;;;;;5089975;28;20043;-69
2021/04/26 06:38:13;;;;;;;16.50;6.45;;;;;;;;;;5086490;28;20075;-70
2021/04/26 06:40:41;;;;;;;12.70;5.78;;;;;;;;;;5087121;28;20594;-70
2021/04/26 06:43:10;;;;;;;12.00;6.18;;;;;;;;;;5090704;28;20062;-70
2021/04/26 06:45:39;;;;;;;13.30;5.15;;;;;;;;;;5087781;28;20044;-70
2021/04/26 06:48:06;;;;;;;11.90;6.45;;;;;;;;;;5088668;28;20081;-72
2021/04/26 06:50:35;;;;;;;12.45;5.80;;;;;;;;;;5090346;28;20556;-69
2021/04/26 06:53:04;;;;;;;10.25;5.13;;;;;;;;;;5088807;28;20058;-69
2021/04/26 06:55:35;;;;;;;14.15;5.72;;;;;;;;;;5087072;28;20130;-71
2021/04/26 06:58:04;;;;;;;9.73;5.57;;;;;;;;;;5085606;28;20060;-70
2021/04/26 07:00:33;;;;;;;10.27;5.45;;;;;;;;;;5088851;28;20123;-72
2021/04/26 07:03:02;;;;;;;9.85;5.05;;;;;;;;;;5087059;28;20082;-70
2021/04/26 07:05:31;;;;;;;12.30;5.28;;;;;;;;;;5084387;28;20080;-73
2021/04/26 07:08:02;;;;;;;10.55;5.63;;;;;;;;;;5086070;28;20552;-71
2021/04/26 07:10:32;;;;;;;11.70;5.85;;;;;;;;;;5089113;28;20113;-69
2021/04/26 07:13:01;;;;;;;11.20;5.70;;;;;;;;;;5086127;28;20048;-70
2021/04/26 07:15:28;;;;;;;9.23;5.40;;;;;;;;;;5087601;28;20055;-69
2021/04/26 07:17:57;;;;;;;10.82;5.45;;;;;;;;;;5086357;28;20446;-71
2021/04/26 07:20:26;;;;;;;11.88;5.97;;;;;;;;;;5085109;28;20048;-70
2021/04/26 07:22:54;;;;;;;10.30;5.97;;;;;;;;;;5085753;28;20109;-71
2021/04/26 07:25:22;;;;;;;13.40;5.88;;;;;;;;;;5085562;28;20048;-72
2021/04/26 07:27:50;;;;;;;8.77;5.80;;;;;;;;;;5084259;28;20048;-70
2021/04/26 07:30:27;;;;;;;9.52;5.45;;;;;;;;;;5077427;28;20273;-70
2021/04/26 07:32:55;;;;;;;9.85;5.50;;;;;;;;;;5085875;28;20058;-69
2021/04/26 07:35:25;;;;;;;15.10;5.90;;;;;;;;;;5084393;28;20557;-69
2021/04/26 07:37:53;;;;;;;13.60;6.20;;;;;;;;;;5078642;28;20083;-70
2021/04/26 07:40:21;;;;;;;11.15;5.75;;;;;;;;;;5087092;28;20060;-69
2021/04/26 07:42:49;;;;;;;10.98;5.60;;;;;;;;;;5086840;28;20087;-70
2021/04/26 07:45:20;;;;;;;8.75;5.53;;;;;;;;;;5084566;28;20048;-71
2021/04/26 07:47:49;;;;;;;14.70;5.80;;;;;;;;;;5065248;28;20052;-69
2021/04/26 07:50:18;;;;;;;10.80;5.70;;;;;;;;;;5072728;28;20063;-70
2021/04/26 07:52:47;;;;;;;10.52;5.40;;;;;;;;;;5084637;28;20087;-70
2021/04/26 07:55:15;;;;;;;11.20;6.07;;;;;;;;;;5085514;28;20052;-71
2021/04/26 07:57:43;;;;;;;9.07;5.18;;;;;;;;;;5082413;28;20071;-68
2021/04/26 08:00:12;;;;;;;9.77;6.00;;;;;;;;;;5085710;28;20463;-69
2021/04/26 08:02:40;;;;;;;14.40;7.00;;;;;;;;;;5085226;28;20056;-69
2021/04/26 08:05:14;;;;;;;9.95;5.35;;;;;;;;;;5083545;28;20181;-68
2021/04/26 08:07:43;;;;;;;11.13;5.70;;;;;;;;;;5081213;28;20583;-70
2021/04/26 08:10:13;;;;;;;9.93;5.10;;;;;;;;;;5089210;28;20064;-72
2021/04/26 08:12:41;;;;;;;11.77;5.68;;;;;;;;;;5089865;28;20051;-69
2021/04/26 08:15:10;;;;;;;9.85;5.40;;;;;;;;;;5088478;28;20047;-69
2021/04/26 08:17:39;;;;;;;17.67;6.30;;;;;;;;;;5088702;28;20047;-70
2021/04/26 08:20:09;;;;;;;10.23;5.32;;;;;;;;;;5089077;28;20067;-69
2021/04/26 08:22:37;;;;;;;8.80;4.72;;;;;;;;;;5086201;28;20052;-71
2021/04/26 08:25:07;;;;;;;13.93;5.63;;;;;;;;;;5088988;28;20116;-70
2021/04/26 08:27:36;;;;;;;14.23;5.30;;;;;;;;;;5088194;28;20267;-69
2021/04/26 08:30:06;;;;;;;10.63;5.25;;;;;;;;;;5088770;28;20499;-70
2021/04/26 08:32:34;;;;;;;11.48;6.00;;;;;;;;;;5087731;28;20089;-71
2021/04/26 08:35:03;;;;;;;11.35;5.25;;;;;;;;;;5083316;28;20496;-74
2021/04/26 08:37:31;;;;;;;10.05;5.72;;;;;;;;;;5085239;28;20694;-69
2021/04/26 08:39:59;;;;;;;9.82;5.15;;;;;;;;;;5092383;28;20388;-72
2021/04/26 08:42:28;;;;;;;9.02;5.45;;;;;;;;;;5091648;28;20050;-69
2021/04/26 08:44:57;;;;;;;10.60;5.47;;;;;;;;;;5092314;28;20341;-68
2021/04/26 08:47:26;;;;;;;11.10;5.18;;;;;;;;;;5091451;28;20035;-69
2021/04/26 08:49:58;;;;;;;12.63;6.05;;;;;;;;;;5092106;28;20138;-71
2021/04/26 08:52:26;;;;;;;11.40;5.47;;;;;;;;;;5092902;28;20494;-69
2021/04/26 08:54:54;;;;;;;13.07;5.03;;;;;;;;;;5092643;28;20056;-69
2021/04/26 08:57:22;;;;;;;9.02;5.00;;;;;;;;;;5091947;28;20039;-69
2021/04/26 08:59:50;;;;;;;12.93;4.70;;;;;;;;;;5092776;28;20044;-68
2021/04/26 09:02:20;;;;;;;10.48;5.53;;;;;;;;;;5092198;28;20087;-69
2021/04/26 09:04:50;;;;;;;16.20;6.50;;;;;;;;;;5095911;28;20121;-69
2021/04/26 09:07:22;;;;;;;10.13;5.00;;;;;;;;;;5091311;28;20043;-69
2021/04/26 09:09:51;;;;;;;10.43;5.43;;;;;;;;;;5092963;28;20075;-70
2021/04/26 09:12:26;;;;;;;8.85;5.30;;;;;;;;;;5093199;28;20052;-73
2021/04/26 09:14:55;;;;;;;10.73;5.07;;;;;;;;;;5091723;28;20072;-68
2021/04/26 09:17:27;;;;;;;11.82;5.53;;;;;;;;;;5089521;28;20052;-71
2021/04/26 09:19:57;;;;;;;9.32;5.18;;;;;;;;;;5091998;28;20083;-68
2021/04/26 09:22:46;;;;;;;10.20;4.97;;;;;;;;;;5091613;28;20540;-68
2021/04/26 09:25:28;;;;;;;11.18;4.82;;;;;;;;;;5083219;28;20057;-71
2021/04/26 09:28:00;;;;;;;9.00;4.85;;;;;;;;;;5081900;28;20040;-68
2021/04/26 09:30:45;;;;;;;8.80;4.63;;;;;;;;;;5085521;28;20063;-68
2021/04/26 09:33:23;;;;;;;10.07;4.75;;;;;;;;;;5091735;28;20479;-68
2021/04/26 09:35:59;;;;;;;12.23;5.15;;;;;;;;;;5090941;28;20399;-71
2021/04/26 09:38:28;;;;;;;7.43;5.10;;;;;;;;;;5086974;28;20407;-68
2021/04/26 09:41:09;;;;;;;8.40;5.03;;;;;;;;;;5092385;28;20437;-71
2021/04/26 09:43:37;;;;;;;8.10;4.22;;;;;;;;;;5093112;28;20044;-68
2021/04/26 09:46:05;;;;;;;7.13;5.00;;;;;;;;;;5090891;28;20055;-72
2021/04/26 09:48:34;;;;;;;10.68;4.60;;;;;;;;;;5089384;28;20040;-68
2021/04/26 09:51:04;;;;;;;9.02;4.80;;;;;;;;;;5094203;28;20071;-72
2021/04/26 09:53:34;;;;;;;7.40;3.95;;;;;;;;;;5091133;28;20040;-71
2021/04/26 09:56:12;;;;;;;7.88;4.20;;;;;;;;;;5090394;28;20040;-69
2021/04/26 09:58:41;;;;;;;5.78;3.78;;;;;;;;;;5087943;28;20044;-71
2021/04/26 10:01:15;;;;;;;8.00;3.40;;;;;;;;;;5086559;28;20040;-71
2021/04/26 10:03:45;;;;;;;11.48;4.45;;;;;;;;;;5088986;28;20048;-68
2021/04/26 10:06:15;;;;;;;7.35;4.10;;;;;;;;;;5088477;28;20059;-73
2021/04/26 10:08:47;;;;;;;10.05;3.45;;;;;;;;;;5090395;28;20044;-69
2021/04/26 10:11:16;;;;;;;7.88;4.43;;;;;;;;;;5087573;28;20379;-68
2021/04/26 10:13:45;;;;;;;7.22;3.80;;;;;;;;;;5090683;28;20052;-78
2021/04/26 10:16:15;;;;;;;7.65;3.70;;;;;;;;;;5077531;28;20048;-77
2021/04/26 10:18:45;;;;;;;7.40;3.80;;;;;;;;;;5088525;28;20089;-68
2021/04/26 10:21:30;;;;;;;7.20;4.10;;;;;;;;;;5089268;28;20075;-70
2021/04/26 10:23:58;;;;;;;7.88;4.07;;;;;;;;;;5089054;28;20070;-72
2021/04/26 10:26:41;;;;;;;8.70;4.15;;;;;;;;;;5090514;28;20040;-74
2021/04/26 10:29:12;;;;;;;9.45;4.25;;;;;;;;;;5070996;28;20044;-73
2021/04/26 10:31:59;;;;;;;7.50;3.92;;;;;;;;;;5086542;28;20071;-72
2021/04/26 10:34:33;;;;;;;5.70;3.80;;;;;;;;;;5068816;28;20473;-68
2021/04/26 10:37:04;;;;;;;7.68;4.07;;;;;;;;;;5085028;28;20110;-70
2021/04/26 10:39:34;;;;;;;8.73;4.15;;;;;;;;;;5090086;28;20055;-67
2021/04/26 10:42:10;;;;;;;8.45;3.92;;;;;;;;;;5089812;28;20039;-68
2021/04/26 10:44:50;;;;;;;7.97;4.35;;;;;;;;;;5092564;28;20079;-70
2021/04/26 10:47:26;;;;;;;6.28;3.70;;;;;;;;;;5086255;28;20101;-73
2021/04/26 10:50:11;;;;;;;8.45;4.07;;;;;;;;;;5088284;28;20532;-74
2021/04/26 10:52:42;;;;;;;7.57;4.10;;;;;;;;;;5088718;28;20044;-72
2021/04/26 10:55:12;;;;;;;7.05;4.40;;;;;;;;;;5089771;28;20090;-74
2021/04/26 10:57:42;;;;;;;7.32;4.68;;;;;;;;;;5088161;28;20535;-72
2021/04/26 11:00:26;;;;;;;8.38;3.75;;;;;;;;;;5077069;28;20048;-74
2021/04/26 11:02:55;;;;;;;6.38;4.15;;;;;;;;;;5075028;28;20048;-68
2021/04/26 11:05:23;;;;;;;7.53;4.13;;;;;;;;;;5081440;28;20056;-78
2021/04/26 11:07:55;;;;;;;6.97;3.70;;;;;;;;;;5081756;28;20044;-74
2021/04/26 11:10:34;;;;;;;6.35;3.60;;;;;;;;;;5080870;28;20081;-69
2021/04/26 11:13:03;;;;;;;8.15;3.58;;;;;;;;;;5089486;28;20047;-68
2021/04/26 11:15:31;;;;;;;8.80;3.85;;;;;;;;;;5087887;28;20168;-72
2021/04/26 11:18:13;;;;;;;8.15;3.45;;;;;;;;;;5085900;28;20291;-71
2021/04/26 11:20:41;;;;;;;6.07;3.40;;;;;;;;;;5087387;28;20058;-73
2021/04/26 11:23:30;;;;;;;7.63;4.25;;;;;;;;;;5088170;28;20101;-72
2021/04/26 11:26:12;;;;;;;4.00;2.85;;;;;;;;;;5089073;28;20062;-77
2021/04/26 11:28:59;;;;;;;5.35;3.33;;;;;;;;;;5086528;28;20123;-73
2021/04/26 11:31:42;;;;;;;7.25;4.00;;;;;;;;;;5086460;28;20071;-69
2021/04/26 11:34:10;;;;;;;10.18;4.38;;;;;;;;;;5081087;28;20462;-69
2021/04/26 11:36:39;;;;;;;7.55;3.95;;;;;;;;;;5087216;28;20131;-70
2021/04/26 11:39:09;;;;;;;6.40;4.10;;;;;;;;;;5085490;28;20500;-70
2021/04/26 11:41:40;;;;;;;11.75;3.78;;;;;;;;;;5088337;28;20044;-71
2021/04/26 11:44:11;;;;;;;6.57;4.37;;;;;;;;;;5090040;28;20130;-74
2021/04/26 11:46:39;;;;;;;7.45;3.65;;;;;;;;;;5086496;28;20424;-74
2021/04/26 11:49:14;;;;;;;6.20;3.65;;;;;;;;;;5087743;28;20052;-69
2021/04/26 11:51:41;;;;;;;8.48;4.15;;;;;;;;;;5087646;28;20047;-72
2021/04/26 11:54:11;;;;;;;5.35;3.50;;;;;;;;;;5088555;28;20104;-71
2021/04/26 11:56:39;;;;;;;7.22;3.80;;;;;;;;;;5084797;28;20056;-72
2021/04/26 11:59:07;;;;;;;6.07;3.80;;;;;;;;;;5086661;28;20052;-73
2021/04/26 12:01:49;;;;;;;12.00;4.28;;;;;;;;;;5088670;28;20112;-69
2021/04/26 12:04:34;;;;;;;7.10;4.81;;;;;;;;;;2930189;28;10003229;-69
2021/04/26 12:07:03;;;;;;;11.18;4.28;;;;;;;;;;3331496;28;10001341;-78
2021/04/26 12:09:32;;;;;;;9.30;4.03;;;;;;;;;;5091857;28;20032;-68
2021/04/26 12:12:00;;;;;;;7.50;3.97;;;;;;;;;;5092361;28;20097;-70
2021/04/26 12:14:28;;;;;;;8.98;4.00;;;;;;;;;;5092084;28;20544;-68
2021/04/26 12:17:11;;;;;;;9.45;4.28;;;;;;;;;;5090942;28;20060;-73
2021/04/26 12:19:39;;;;;;;7.10;3.78;;;;;;;;;;5087810;28;20553;-75
2021/04/26 12:22:06;;;;;;;5.75;3.88;;;;;;;;;;5091991;28;20127;-75
2021/04/26 12:24:35;;;;;;;5.72;3.95;;;;;;;;;;5093158;28;20063;-73
2021/04/26 12:27:08;;;;;;;13.02;4.00;;;;;;;;;;5089219;28;20120;-73
2021/04/26 12:29:35;;;;;;;7.00;4.10;;;;;;;;;;5088163;28;20050;-74
2021/04/26 12:32:13;;;;;;;6.93;4.30;;;;;;;;;;5085239;28;20430;-69
2021/04/26 12:34:48;;;;;;;7.95;4.38;;;;;;;;;;5087981;28;20040;-80
2021/04/26 12:37:16;;;;;;;7.05;4.85;;;;;;;;;;5091378;28;20052;-74
2021/04/26 12:39:46;;;;;;;10.23;4.85;;;;;;;;;;5090690;28;20153;-72
2021/04/26 12:42:14;;;;;;;9.38;4.75;;;;;;;;;;5092087;28;20052;-71
2021/04/26 12:44:42;;;;;;;6.30;4.28;;;;;;;;;;5086217;28;20491;-70
2021/04/26 12:47:19;;;;;;;7.28;4.90;;;;;;;;;;5091913;28;20061;-69
2021/04/26 12:49:47;;;;;;;8.13;4.22;;;;;;;;;;5089814;28;20059;-68
2021/04/26 12:52:16;;;;;;;10.18;4.55;;;;;;;;;;5090572;28;20062;-69
2021/04/26 12:55:08;;;;;;;6.05;4.35;;;;;;;;;;5089144;28;20070;-72
2021/04/26 12:57:36;;;;;;;11.07;4.95;;;;;;;;;;5064229;28;20048;-71
2021/04/26 13:00:06;;;;;;;9.00;4.70;;;;;;;;;;5089954;28;20055;-74
2021/04/26 13:02:33;;;;;;;11.60;4.93;;;;;;;;;;5089103;28;20393;-70
2021/04/26 13:05:02;;;;;;;9.70;4.97;;;;;;;;;;5091964;28;20518;-69
2021/04/26 13:07:30;;;;;;;7.82;4.55;;;;;;;;;;5082565;28;20056;-71
2021/04/26 13:10:02;;;;;;;9.10;4.53;;;;;;;;;;5080467;28;20054;-73
2021/04/26 13:12:30;;;;;;;7.07;4.20;;;;;;;;;;5091332;28;20376;-77
2021/04/26 13:14:59;;;;;;;6.75;4.57;;;;;;;;;;5090459;28;20056;-69
2021/04/26 13:17:35;;;;;;;9.13;4.95;;;;;;;;;;5090288;28;20095;-73
2021/04/26 13:20:19;;;;;;;8.63;4.85;;;;;;;;;;5087377;28;20392;-75
2021/04/26 13:22:48;;;;;;;7.90;4.25;;;;;;;;;;5081651;28;20489;-68
2021/04/26 13:25:16;;;;;;;7.40;5.20;;;;;;;;;;5083753;28;20040;-69
2021/04/26 13:27:45;;;;;;;11.35;5.45;;;;;;;;;;5089733;28;20475;-72
2021/04/26 13:30:15;;;;;;;7.75;5.38;;;;;;;;;;5080715;28;20139;-71
2021/04/26 13:32:43;;;;;;;7.65;4.93;;;;;;;;;;5084099;28;20149;-73
2021/04/26 13:35:12;;;;;;;7.03;4.90;;;;;;;;;;5089113;28;20044;-79
2021/04/26 13:37:41;;;;;;;8.18;4.75;;;;;;;;;;5088050;28;20557;-67
2021/04/26 13:40:10;;;;;;;8.35;5.13;;;;;;;;;;5081371;28;20484;-74
2021/04/26 13:42:38;;;;;;;8.75;4.30;;;;;;;;;;5087689;28;20048;-72
2021/04/26 13:45:06;;;;;;;9.40;4.70;;;;;;;;;;5087725;28;20055;-68
2021/04/26 13:47:35;;;;;;;7.05;4.53;;;;;;;;;;5085530;28;20048;-70
2021/04/26 13:50:04;;;;;;;8.05;4.55;;;;;;;;;;5085314;28;20134;-69
2021/04/26 13:52:32;;;;;;;8.38;4.43;;;;;;;;;;5087159;28;20048;-70
2021/04/26 13:55:00;;;;;;;9.02;4.85;;;;;;;;;;5087295;28;20044;-68
2021/04/26 13:57:27;;;;;;;8.90;5.25;;;;;;;;;;5077179;28;20056;-74
2021/04/26 13:59:55;;;;;;;9.32;5.50;;;;;;;;;;5087995;28;20445;-69
2021/04/26 14:02:25;;;;;;;8.15;4.75;;;;;;;;;;5087089;28;20079;-68
2021/04/26 14:04:54;;;;;;;8.23;4.82;;;;;;;;;;5089088;28;20460;-68
2021/04/26 14:07:21;;;;;;;8.95;4.15;;;;;;;;;;5079915;28;20040;-68
2021/04/26 14:09:49;;;;;;;8.75;4.70;;;;;;;;;;5083360;28;20415;-68
2021/04/26 14:12:17;;;;;;;8.10;4.95;;;;;;;;;;5083421;28;20610;-68
2021/04/26 14:14:46;;;;;;;7.00;5.40;;;;;;;;;;5089371;28;20052;-67
2021/04/26 14:17:15;;;;;;;7.70;4.63;;;;;;;;;;5089283;28;20056;-70
2021/04/26 14:19:43;;;;;;;6.95;4.28;;;;;;;;;;5087409;28;20052;-74
2021/04/26 14:22:14;;;;;;;6.25;4.18;;;;;;;;;;5083250;28;20090;-75
2021/04/26 14:24:42;;;;;;;7.22;4.43;;;;;;;;;;5088000;28;20044;-69
2021/04/26 14:27:09;;;;;;;7.85;4.35;;;;;;;;;;5086864;28;20074;-70
2021/04/26 14:29:38;;;;;;;10.63;5.22;;;;;;;;;;5090820;28;20513;-74
2021/04/26 14:32:05;;;;;;;8.20;4.78;;;;;;;;;;5087235;28;20062;-68
2021/04/26 14:34:34;;;;;;;6.88;4.32;;;;;;;;;;5087561;28;20092;-68
2021/04/26 14:37:02;;;;;;;7.30;4.68;;;;;;;;;;5081121;28;20373;-71
2021/04/26 14:39:32;;;;;;;9.73;5.10;;;;;;;;;;5086250;28;20110;-71
2021/04/26 14:42:01;;;;;;;11.48;4.78;;;;;;;;;;5083618;28;20483;-70
2021/04/26 14:44:29;;;;;;;9.25;4.88;;;;;;;;;;5084517;28;20267;-71
2021/04/26 14:46:57;;;;;;;9.23;5.30;;;;;;;;;;5087855;28;20044;-71
2021/04/26 14:49:25;;;;;;;9.48;5.20;;;;;;;;;;5089717;28;20097;-70
2021/04/26 14:51:53;;;;;;;7.88;4.50;;;;;;;;;;5088339;28;20040;-69